createdAt,value
2022-11-23T00:02:21.271Z,1.10
2022-11-23T00:06:25.836Z,1.30
2022-11-23T00:10:30.557Z,1.13
2022-11-23T00:14:34.382Z,1.47
2022-11-23T00:18:37.732Z,1.87
2022-11-23T00:22:40.980Z,1.60
2022-11-23T00:26:45.724Z,1.97
2022-11-23T00:30:52.560Z,1.73
2022-11-23T00:34:55.845Z,1.60
2022-11-23T00:38:59.090Z,1.77
2022-11-23T00:43:03.819Z,1.53
2022-11-23T00:47:07.162Z,1.50
2022-11-23T00:51:13.000Z,1.00
2022-11-23T00:55:16.468Z,1.10
2022-11-23T00:59:21.188Z,1.40
2022-11-23T01:03:24.460Z,2.30
2022-11-23T01:07:30.638Z,2.33
2022-11-23T01:11:34.552Z,1.17
2022-11-23T01:15:39.310Z,1.20
2022-11-23T01:19:42.741Z,1.50
2022-11-23T01:23:46.026Z,1.63
2022-11-23T01:27:49.366Z,1.07
2022-11-23T01:31:54.072Z,1.60
2022-11-23T01:35:57.366Z,1.10
2022-11-23T01:40:00.670Z,1.27
2022-11-23T01:44:27.270Z,1.10
2022-11-23T01:48:37.951Z,1.33
2022-11-23T01:52:41.247Z,1.73
2022-11-23T01:56:50.242Z,1.53
2022-11-23T02:00:53.578Z,1.80
2022-11-23T02:05:01.874Z,1.83
2022-11-23T02:09:05.269Z,2.43
2022-11-23T02:13:12.031Z,1.97
2022-11-23T02:17:15.483Z,2.23
2022-11-23T02:21:20.457Z,1.53
2022-11-23T02:25:35.657Z,1.63
2022-11-23T02:29:41.719Z,2.13
2022-11-23T02:33:45.020Z,1.73
2022-11-23T02:37:48.691Z,1.80
2022-11-23T02:41:55.005Z,2.00
2022-11-23T02:46:03.054Z,2.43
2022-11-23T02:50:06.919Z,2.97
2022-11-23T02:54:10.214Z,3.83
2022-11-23T02:58:13.540Z,2.40
2022-11-23T03:02:18.293Z,2.67
2022-11-23T03:06:21.648Z,2.87
2022-11-23T03:10:24.930Z,2.70
2022-11-23T03:14:28.826Z,2.90
2022-11-23T03:18:37.468Z,3.03
2022-11-23T03:23:04.317Z,3.80
2022-11-23T03:27:11.653Z,3.37
2022-11-23T03:31:20.584Z,3.43
2022-11-23T03:35:39.738Z,3.23
2022-11-23T03:39:47.352Z,3.13
2022-11-23T03:43:56.922Z,3.27
2022-11-23T03:48:01.066Z,3.97
2022-11-23T03:52:06.374Z,3.63
2022-11-23T03:56:10.188Z,3.60
2022-11-23T04:00:15.232Z,4.83
2022-11-23T04:04:19.092Z,4.60
2022-11-23T04:08:23.786Z,4.37
2022-11-23T04:12:27.120Z,4.27
2022-11-23T04:16:30.426Z,4.97
2022-11-23T04:20:33.713Z,5.47
2022-11-23T04:24:38.348Z,4.50
2022-11-23T04:28:41.652Z,4.77
2022-11-23T04:32:46.396Z,5.23
2022-11-23T04:36:49.696Z,4.60
2022-11-23T04:40:54.532Z,4.90
2022-11-23T04:44:59.091Z,5.37
2022-11-23T04:49:02.317Z,4.50
2022-11-23T04:53:06.336Z,4.60
2022-11-23T04:57:11.515Z,5.10
2022-11-23T05:01:14.906Z,4.63
2022-11-23T05:05:18.503Z,5.20
2022-11-23T05:09:21.911Z,4.70
2022-11-23T05:13:26.812Z,5.53
2022-11-23T05:17:30.358Z,4.83
2022-11-23T05:21:33.616Z,6.50
2022-11-23T05:25:36.921Z,5.80
2022-11-23T05:29:41.568Z,5.20
2022-11-23T05:33:45.108Z,6.80
2022-11-23T05:37:48.385Z,5.67
2022-11-23T05:41:51.709Z,4.90
2022-11-23T05:45:56.416Z,5.90
2022-11-23T05:49:59.669Z,7.60
2022-11-23T05:54:03.204Z,6.00
2022-11-23T05:58:06.485Z,7.10
2022-11-23T06:29:53.716Z,5.43
2022-11-23T06:33:58.417Z,9.10
2022-11-23T06:38:01.886Z,7.37
2022-11-23T06:42:23.763Z,6.87
2022-11-23T06:46:28.752Z,12.50
2022-11-23T06:50:33.757Z,10.40
2022-11-23T06:54:37.796Z,7.83
2022-11-23T06:58:41.573Z,9.33
2022-11-23T07:02:44.915Z,6.17
2022-11-23T07:06:49.753Z,7.03
2022-11-23T07:10:53.152Z,7.83
2022-11-23T07:14:56.615Z,19.00
2022-11-23T07:19:00.127Z,7.07
2022-11-23T07:23:06.224Z,8.43
2022-11-23T07:27:09.471Z,5.63
2022-11-23T07:31:16.083Z,4.70
2022-11-23T07:35:19.625Z,4.03
2022-11-23T07:39:41.866Z,2.77
2022-11-23T07:43:47.787Z,1.80
2022-11-23T07:47:59.806Z,3.97
2022-11-23T07:52:03.064Z,2.13
2022-11-23T07:56:08.813Z,1.93
2022-11-23T08:00:13.441Z,1.80
2022-11-23T08:04:16.744Z,5.80
2022-11-23T08:08:19.985Z,4.40
2022-11-23T08:12:24.699Z,4.40
2022-11-23T08:16:28.081Z,4.60
2022-11-23T08:20:33.520Z,5.07
2022-11-23T08:24:36.865Z,5.33
2022-11-23T08:28:41.523Z,3.20
2022-11-23T08:32:44.832Z,3.50
2022-11-23T08:36:48.241Z,3.73
2022-11-23T08:40:51.512Z,2.83
2022-11-23T08:44:56.274Z,4.10
2022-11-23T08:48:59.639Z,2.97
2022-11-23T08:53:02.951Z,3.23
2022-11-23T08:57:06.353Z,2.63
2022-11-23T09:01:12.141Z,2.90
2022-11-23T09:05:15.592Z,3.67
2022-11-23T09:09:18.937Z,3.63
2022-11-23T09:13:24.319Z,3.93
2022-11-23T09:17:29.031Z,4.10
2022-11-23T09:21:34.501Z,3.23
2022-11-23T09:25:37.906Z,2.50
2022-11-23T09:29:41.209Z,1.63
2022-11-23T09:33:46.002Z,1.00
2022-11-23T09:37:49.277Z,1.30
2022-11-23T09:42:17.866Z,1.70
2022-11-23T09:46:27.218Z,1.43
2022-11-23T09:50:44.764Z,1.27
2022-11-23T09:54:51.025Z,1.50
2022-11-23T09:58:57.890Z,2.83
2022-11-23T10:03:01.166Z,1.10
2022-11-23T10:07:23.876Z,10.57
2022-11-23T10:11:55.891Z,9.57
2022-11-23T10:16:15.670Z,9.20
2022-11-23T10:20:35.799Z,6.20
2022-11-23T10:24:48.046Z,5.70
2022-11-23T10:28:51.997Z,2.40
2022-11-23T10:33:02.420Z,1.87
2022-11-23T10:37:09.491Z,1.40
2022-11-23T10:41:16.748Z,1.80
2022-11-23T10:45:22.085Z,1.50
2022-11-23T10:49:27.674Z,2.30
2022-11-23T10:53:33.941Z,4.90
2022-11-23T10:57:45.398Z,4.40
2022-11-23T11:02:01.846Z,3.73
2022-11-23T11:06:10.262Z,4.10
2022-11-23T11:10:33.678Z,3.10
2022-11-23T11:14:43.237Z,3.70
2022-11-23T11:18:49.440Z,6.17
2022-11-23T11:28:23.024Z,5.53
2022-11-23T11:32:36.164Z,3.13
2022-11-23T11:36:42.341Z,3.37
2022-11-23T11:40:48.296Z,3.33
2022-11-23T11:44:54.325Z,3.80
2022-11-23T11:49:07.202Z,3.70
2022-11-23T11:53:16.371Z,2.87
2022-11-23T11:57:23.379Z,1.80
2022-11-23T12:01:34.722Z,1.83
2022-11-23T12:05:45.821Z,2.30
2022-11-23T12:09:52.986Z,1.33
2022-11-23T12:14:02.900Z,2.20
2022-11-23T12:18:25.227Z,2.00
2022-11-23T12:22:41.807Z,1.40
2022-11-23T12:26:53.474Z,1.33
2022-11-23T12:31:09.586Z,1.73
2022-11-23T12:35:33.280Z,1.17
2022-11-23T12:40:20.117Z,1.50
2022-11-23T12:44:48.932Z,0.90
2022-11-23T12:49:08.274Z,1.53
2022-11-23T12:53:32.152Z,1.73
2022-11-23T12:57:44.097Z,1.53
2022-11-23T13:01:52.875Z,1.33
2022-11-23T13:06:19.467Z,1.67
2022-11-23T13:10:32.149Z,1.40
2022-11-23T13:14:45.724Z,1.50
2022-11-23T13:23:26.436Z,1.57
2022-11-23T13:27:46.323Z,2.10
2022-11-23T13:32:23.455Z,1.53
2022-11-23T13:41:58.297Z,1.53
2022-11-23T13:46:28.879Z,1.67
2022-11-23T13:50:34.393Z,2.73
2022-11-23T13:54:39.870Z,4.50
2022-11-23T13:58:53.283Z,5.13
2022-11-23T14:03:37.583Z,3.70
2022-11-23T14:07:46.615Z,4.80
2022-11-23T14:12:16.232Z,4.20
2022-11-23T14:16:36.459Z,3.20
2022-11-23T14:20:56.991Z,3.93
2022-11-23T14:25:23.259Z,4.10
2022-11-23T14:29:39.100Z,5.17
2022-11-23T14:33:50.226Z,5.00
2022-11-23T14:38:08.123Z,5.37
2022-11-23T14:42:16.789Z,5.13
2022-11-23T14:46:21.961Z,5.83
2022-11-23T14:50:27.480Z,5.97
2022-11-23T14:54:32.486Z,6.37
2022-11-23T14:58:39.926Z,6.57
2022-11-23T15:02:44.993Z,6.90
2022-11-23T15:06:52.896Z,7.70
2022-11-23T15:11:04.434Z,8.60
2022-11-23T15:15:21.050Z,7.53
2022-11-23T15:19:29.573Z,7.10
2022-11-23T15:23:37.127Z,6.70
2022-11-23T15:27:42.560Z,8.13
2022-11-23T15:32:07.065Z,6.60
2022-11-23T15:36:11.067Z,7.07
2022-11-23T15:40:16.410Z,7.70
2022-11-23T15:44:26.381Z,7.60
2022-11-23T15:48:34.061Z,7.70
2022-11-23T15:52:39.350Z,7.07
2022-11-23T15:56:48.643Z,8.47
2022-11-23T16:00:56.475Z,7.90
2022-11-23T16:05:15.066Z,8.43
2022-11-23T16:09:51.212Z,7.93
2022-11-23T16:14:16.914Z,7.93
2022-11-23T16:18:25.836Z,10.40
2022-11-23T16:22:36.360Z,8.40
2022-11-23T16:26:40.909Z,9.17
2022-11-23T16:30:46.542Z,9.83
2022-11-23T16:34:50.009Z,8.20
2022-11-23T16:38:57.608Z,9.23
2022-11-23T16:43:04.642Z,9.83
2022-11-23T16:47:24.747Z,10.60
2022-11-23T16:51:32.555Z,10.50
2022-11-23T16:55:44.289Z,9.10
2022-11-23T16:59:48.958Z,9.57
2022-11-23T17:04:00.488Z,10.70
2022-11-23T17:08:05.376Z,11.20
2022-11-23T17:12:18.419Z,11.47
2022-11-23T17:16:25.352Z,10.90
2022-11-23T17:20:29.895Z,10.77
2022-11-23T17:24:36.196Z,11.77
2022-11-23T17:28:42.764Z,9.93
2022-11-23T17:32:49.478Z,9.47
2022-11-23T17:36:54.697Z,11.00
2022-11-23T17:40:59.919Z,11.17
2022-11-23T17:45:06.370Z,10.43
2022-11-23T17:49:13.120Z,12.00
2022-11-23T17:53:22.549Z,12.50
2022-11-23T17:57:30.229Z,11.90
2022-11-23T18:01:39.426Z,13.03
2022-11-23T18:05:44.793Z,14.10
2022-11-23T18:09:50.338Z,13.97
2022-11-23T18:13:55.856Z,13.20
2022-11-23T18:18:04.861Z,14.33
2022-11-23T18:22:10.017Z,16.63
2022-11-23T18:26:22.353Z,15.90
2022-11-23T18:30:26.698Z,16.70
2022-11-23T18:34:33.288Z,18.10
2022-11-23T18:38:38.636Z,15.37
2022-11-23T18:42:43.324Z,14.90
2022-11-23T18:46:49.002Z,14.67
2022-11-23T18:50:57.919Z,15.27
2022-11-23T18:55:21.211Z,14.43
2022-11-23T19:00:12.674Z,14.43
2022-11-23T19:09:36.408Z,15.10
2022-11-23T19:13:45.988Z,15.13
2022-11-23T19:18:12.385Z,12.80
2022-11-23T19:22:54.849Z,8.87
2022-11-23T19:32:09.493Z,13.30
2022-11-23T19:36:18.827Z,11.30
2022-11-23T19:40:24.222Z,10.87
2022-11-23T19:44:37.177Z,28.40
2022-11-23T19:48:46.505Z,19.30
2022-11-23T19:53:11.710Z,19.63
2022-11-23T19:57:18.974Z,22.17
2022-11-23T20:01:34.193Z,20.47
2022-11-23T20:05:40.216Z,22.70
2022-11-23T20:09:48.518Z,19.87
2022-11-23T20:13:59.997Z,20.87
2022-11-23T20:18:06.868Z,18.00
2022-11-23T20:22:13.696Z,15.73
2022-11-23T20:26:20.925Z,16.20
2022-11-23T20:30:24.897Z,12.93
2022-11-23T20:34:48.680Z,12.07
2022-11-23T20:38:54.985Z,16.63
2022-11-23T20:43:10.281Z,15.57
2022-11-23T20:47:15.339Z,17.80
2022-11-23T20:51:24.014Z,15.53
2022-11-23T20:55:28.947Z,15.53
2022-11-23T20:59:33.464Z,14.87
2022-11-23T21:03:39.173Z,12.23
2022-11-23T21:07:44.796Z,14.00
2022-11-23T21:12:05.348Z,15.73
2022-11-23T21:16:09.670Z,15.03
2022-11-23T21:20:13.362Z,15.47
2022-11-23T21:24:18.641Z,16.90
2022-11-23T21:28:22.800Z,19.17
2022-11-23T21:32:26.331Z,18.73
2022-11-23T21:36:30.125Z,19.03
2022-11-23T21:40:35.183Z,19.13
2022-11-23T21:44:38.712Z,16.70
2022-11-23T21:48:42.484Z,17.80
2022-11-23T21:52:46.011Z,17.47
2022-11-23T21:56:50.906Z,15.67
2022-11-23T22:00:54.532Z,15.50
2022-11-23T22:04:58.132Z,16.20
2022-11-23T22:09:01.830Z,14.23
2022-11-23T22:13:06.748Z,14.83
2022-11-23T22:17:10.235Z,13.60
2022-11-23T22:21:14.403Z,13.40
2022-11-23T22:25:28.089Z,13.47
2022-11-23T22:29:33.096Z,12.70
2022-11-23T22:33:36.679Z,12.73
2022-11-23T22:37:40.098Z,12.70
2022-11-23T22:41:43.611Z,10.57
2022-11-23T22:45:48.736Z,11.77
2022-11-23T22:49:52.208Z,11.37
2022-11-23T22:53:55.888Z,12.10
2022-11-23T22:57:59.453Z,11.63
2022-11-23T23:02:04.366Z,13.17
2022-11-23T23:06:08.060Z,13.03
2022-11-23T23:10:12.086Z,16.33
2022-11-23T23:14:15.543Z,14.00
2022-11-23T23:18:20.424Z,16.17
2022-11-23T23:22:23.874Z,14.10
2022-11-23T23:26:28.744Z,13.77
2022-11-23T23:30:32.186Z,14.30
2022-11-23T23:34:37.171Z,11.70
2022-11-23T23:38:40.958Z,14.43
2022-11-23T23:42:45.421Z,12.90
2022-11-23T23:46:48.933Z,12.40
2022-11-23T23:51:06.701Z,12.90
2022-11-23T23:55:10.869Z,12.40
2022-11-23T23:59:14.292Z,11.80
